West University Place, Texas
Current Conditions -  °F | °C
As of 4:15 AM on Saturday 20 Dec 2014 (Local Time) from KMCJ Reporting Station
Overcast Overcast  
Wind Chill: 50°   Ceiling: 400
Heat Index: 50°   Visibility: NA
Dew Point: 48°   Wind: 13mph
Humidity: 94%   Direction: 340°NNW
Pressure: 30.09"   Gusts: 20mph
Location:  29.7181°N, 95.4241°W
Report Text: KMCJ 201015Z AUTO 34011G17KT OVC004 10/09 A3009 RMK AO1
Loading
Personal Weather Stations






























Interactive Weather Map New forecast layout! Learn more

10-Day Weather Forecast

Advertisements
Track Severe Weather on mobile